TAP15B LPPT-LXGB
Flight info
| Callsign | TAP15B |
|---|---|
| Flight time | 0h 48m |
| Altitude | 35000 |
| Route | DUZOP DCT ORTOP N726 BAMBA UN726 TNR UM985 BARPA |
| Aircraft | A339/H-SADE1E2E3GHIJ3J5M1P2RWXY/LB2D1 |
Departure
| Time | 2026-04-29 06:28 |
|---|---|
| Airport | Lisbon Humberto Delgado Airport (LPPT) |
Arrival
| Time | 2026-04-29 07:17 |
|---|---|
| Airport | Gibraltar Airport (LXGB) |
| Time | Latitude | Longitude | Altitude | Speed | Heading |
|---|---|---|---|---|---|
| 2026-04-29 05:59 | 38.77608 | -9.13200 | 338 ft | 0 kts | 78° |
| 2026-04-29 06:02 | 38.77608 | -9.13205 | 360 ft | 0 kts | 78° |
| 2026-04-29 06:15 | 38.77608 | -9.13207 | 359 ft | 1 kts | 78° |
| 2026-04-29 06:15 | 38.77602 | -9.13239 | 354 ft | 4 kts | 78° |
| 2026-04-29 06:15 | 38.77597 | -9.13273 | 357 ft | 4 kts | 78° |
| 2026-04-29 06:16 | 38.77594 | -9.13301 | 362 ft | 4 kts | 44° |
| 2026-04-29 06:16 | 38.77579 | -9.13317 | 360 ft | 4 kts | 360° |
| 2026-04-29 06:16 | 38.77565 | -9.13317 | 361 ft | 1 kts | 347° |
| 2026-04-29 06:16 | 38.77544 | -9.13311 | 356 ft | 1 kts | 347° |
| 2026-04-29 06:19 | 38.77548 | -9.13312 | 355 ft | 2 kts | 347° |
| 2026-04-29 06:19 | 38.77577 | -9.13320 | 359 ft | 6 kts | 347° |
| 2026-04-29 06:19 | 38.77631 | -9.13321 | 356 ft | 9 kts | 0° |
| 2026-04-29 06:20 | 38.77706 | -9.13330 | 359 ft | 12 kts | 351° |
| 2026-04-29 06:20 | 38.77795 | -9.13354 | 359 ft | 14 kts | 347° |
| 2026-04-29 06:20 | 38.77898 | -9.13384 | 355 ft | 16 kts | 347° |
| 2026-04-29 06:20 | 38.78015 | -9.13414 | 358 ft | 18 kts | 349° |
| 2026-04-29 06:21 | 38.78149 | -9.13447 | 356 ft | 21 kts | 349° |
| 2026-04-29 06:21 | 38.78293 | -9.13489 | 360 ft | 22 kts | 347° |
| 2026-04-29 06:21 | 38.78440 | -9.13529 | 360 ft | 18 kts | 349° |
| 2026-04-29 06:21 | 38.78569 | -9.13563 | 353 ft | 20 kts | 348° |
| 2026-04-29 06:22 | 38.78705 | -9.13534 | 357 ft | 21 kts | 23° |
| 2026-04-29 06:22 | 38.78841 | -9.13461 | 357 ft | 22 kts | 23° |
| 2026-04-29 06:22 | 38.78983 | -9.13384 | 358 ft | 23 kts | 23° |
| 2026-04-29 06:22 | 38.79129 | -9.13307 | 359 ft | 22 kts | 22° |
| 2026-04-29 06:23 | 38.79272 | -9.13232 | 362 ft | 23 kts | 22° |
| 2026-04-29 06:23 | 38.79421 | -9.13151 | 357 ft | 24 kts | 23° |
| 2026-04-29 06:23 | 38.79576 | -9.13067 | 362 ft | 24 kts | 23° |
| 2026-04-29 06:23 | 38.79696 | -9.13002 | 362 ft | 16 kts | 22° |
| 2026-04-29 06:24 | 38.79771 | -9.12944 | 357 ft | 7 kts | 65° |
| 2026-04-29 06:24 | 38.79765 | -9.12876 | 361 ft | 8 kts | 108° |
| 2026-04-29 06:24 | 38.79757 | -9.12856 | 361 ft | 0 kts | 115° |
| 2026-04-29 06:26 | 38.79751 | -9.12840 | 363 ft | 5 kts | 115° |
| 2026-04-29 06:26 | 38.79725 | -9.12773 | 366 ft | 11 kts | 124° |
| 2026-04-29 06:27 | 38.79670 | -9.12772 | 363 ft | 8 kts | 194° |
| 2026-04-29 06:27 | 38.79609 | -9.12803 | 365 ft | 11 kts | 202° |
| 2026-04-29 06:27 | 38.79386 | -9.12923 | 360 ft | 74 kts | 203° |
| 2026-04-29 06:27 | 38.78650 | -9.13317 | 363 ft | 151 kts | 203° |
| 2026-04-29 06:28 | 38.77559 | -9.13890 | 685 ft | 181 kts | 202° |
| 2026-04-29 06:28 | 38.76335 | -9.14484 | 1335 ft | 195 kts | 200° |
| 2026-04-29 06:28 | 38.75013 | -9.15076 | 1991 ft | 207 kts | 199° |
| 2026-04-29 06:28 | 38.73594 | -9.15676 | 2577 ft | 224 kts | 199° |
| 2026-04-29 06:29 | 38.72056 | -9.16360 | 3132 ft | 242 kts | 200° |
| 2026-04-29 06:29 | 38.70436 | -9.17124 | 3800 ft | 253 kts | 201° |
| 2026-04-29 06:29 | 38.68743 | -9.17797 | 4570 ft | 257 kts | 193° |
| 2026-04-29 06:29 | 38.66970 | -9.18070 | 5379 ft | 258 kts | 181° |
| 2026-04-29 06:30 | 38.65178 | -9.17853 | 6234 ft | 258 kts | 169° |
| 2026-04-29 06:30 | 38.61874 | -9.15758 | 7415 ft | 279 kts | 148° |
| 2026-04-29 06:30 | 38.60174 | -9.14520 | 8186 ft | 281 kts | 153° |
| 2026-04-29 06:31 | 38.58452 | -9.13380 | 8947 ft | 285 kts | 153° |
| 2026-04-29 06:31 | 38.56683 | -9.12205 | 9707 ft | 288 kts | 153° |
| 2026-04-29 06:31 | 38.54898 | -9.10986 | 10375 ft | 296 kts | 152° |
| 2026-04-29 06:31 | 38.53016 | -9.09672 | 10600 ft | 319 kts | 152° |
| 2026-04-29 06:32 | 38.50983 | -9.08233 | 10859 ft | 338 kts | 151° |
| 2026-04-29 06:32 | 38.48912 | -9.06757 | 11487 ft | 343 kts | 151° |
| 2026-04-29 06:32 | 38.46843 | -9.05284 | 12152 ft | 346 kts | 151° |
| 2026-04-29 06:32 | 38.44763 | -9.03805 | 12802 ft | 350 kts | 151° |
| 2026-04-29 06:33 | 38.42627 | -9.02288 | 13447 ft | 353 kts | 151° |
| 2026-04-29 06:33 | 38.40469 | -9.00759 | 14079 ft | 356 kts | 151° |
| 2026-04-29 06:33 | 38.38287 | -8.99213 | 14716 ft | 360 kts | 151° |
| 2026-04-29 06:33 | 38.36087 | -8.97656 | 15338 ft | 363 kts | 151° |
| 2026-04-29 06:34 | 38.33869 | -8.96088 | 15924 ft | 366 kts | 151° |
| 2026-04-29 06:34 | 38.31600 | -8.94484 | 16522 ft | 370 kts | 151° |
| 2026-04-29 06:34 | 38.29329 | -8.92881 | 17105 ft | 373 kts | 151° |
| 2026-04-29 06:34 | 38.27055 | -8.91276 | 17649 ft | 376 kts | 151° |
| 2026-04-29 06:35 | 38.24749 | -8.89650 | 18225 ft | 380 kts | 151° |
| 2026-04-29 06:35 | 38.22457 | -8.88035 | 18764 ft | 383 kts | 151° |
| 2026-04-29 06:35 | 38.20120 | -8.86389 | 19309 ft | 386 kts | 151° |
| 2026-04-29 06:35 | 38.17756 | -8.84726 | 19850 ft | 389 kts | 151° |
| 2026-04-29 06:36 | 38.15379 | -8.83055 | 20379 ft | 392 kts | 151° |
| 2026-04-29 06:36 | 38.12977 | -8.81368 | 20932 ft | 396 kts | 151° |
| 2026-04-29 06:36 | 38.10555 | -8.79668 | 21448 ft | 399 kts | 151° |
| 2026-04-29 06:36 | 38.08114 | -8.77956 | 21964 ft | 402 kts | 151° |
| 2026-04-29 06:37 | 38.05654 | -8.76231 | 22471 ft | 405 kts | 151° |
| 2026-04-29 06:37 | 38.03200 | -8.74513 | 22983 ft | 408 kts | 151° |
| 2026-04-29 06:37 | 38.00687 | -8.72754 | 23491 ft | 412 kts | 151° |
| 2026-04-29 06:37 | 37.98194 | -8.71011 | 23982 ft | 415 kts | 151° |
| 2026-04-29 06:38 | 37.95625 | -8.69215 | 24479 ft | 418 kts | 151° |
| 2026-04-29 06:38 | 37.93104 | -8.67455 | 24955 ft | 421 kts | 151° |
| 2026-04-29 06:38 | 37.90524 | -8.65655 | 25427 ft | 424 kts | 151° |
| 2026-04-29 06:38 | 37.87933 | -8.63849 | 25880 ft | 427 kts | 151° |
| 2026-04-29 06:39 | 37.85307 | -8.62021 | 26341 ft | 430 kts | 152° |
| 2026-04-29 06:39 | 37.82676 | -8.60190 | 26780 ft | 433 kts | 152° |
| 2026-04-29 06:39 | 37.80023 | -8.58345 | 27209 ft | 436 kts | 152° |
| 2026-04-29 06:39 | 37.77351 | -8.56488 | 27628 ft | 439 kts | 152° |
| 2026-04-29 06:40 | 37.74659 | -8.54620 | 28036 ft | 442 kts | 152° |
| 2026-04-29 06:40 | 37.71956 | -8.52745 | 28438 ft | 445 kts | 152° |
| 2026-04-29 06:40 | 37.69238 | -8.50861 | 28817 ft | 447 kts | 152° |
| 2026-04-29 06:40 | 37.66502 | -8.48967 | 29180 ft | 450 kts | 152° |
| 2026-04-29 06:41 | 37.63743 | -8.47059 | 29545 ft | 453 kts | 152° |
| 2026-04-29 06:41 | 37.60972 | -8.45144 | 29919 ft | 455 kts | 152° |
| 2026-04-29 06:41 | 37.58222 | -8.43245 | 30283 ft | 458 kts | 152° |
| 2026-04-29 06:41 | 37.55418 | -8.41310 | 30650 ft | 460 kts | 152° |
| 2026-04-29 06:42 | 37.52596 | -8.39364 | 31018 ft | 463 kts | 152° |
| 2026-04-29 06:42 | 37.49722 | -8.37384 | 31383 ft | 466 kts | 152° |
| 2026-04-29 06:42 | 37.46826 | -8.35390 | 31740 ft | 468 kts | 152° |
| 2026-04-29 06:42 | 37.43918 | -8.33391 | 32086 ft | 471 kts | 152° |
| 2026-04-29 06:43 | 37.41033 | -8.31408 | 32413 ft | 473 kts | 152° |
| 2026-04-29 06:43 | 37.38191 | -8.29458 | 32687 ft | 475 kts | 152° |
| 2026-04-29 06:43 | 37.35226 | -8.27424 | 32954 ft | 477 kts | 152° |
| 2026-04-29 06:43 | 37.32308 | -8.25424 | 33192 ft | 479 kts | 152° |
| 2026-04-29 06:44 | 37.29373 | -8.23415 | 33377 ft | 481 kts | 152° |
| 2026-04-29 06:44 | 37.26426 | -8.21399 | 33581 ft | 482 kts | 152° |
| 2026-04-29 06:44 | 37.23485 | -8.19389 | 33816 ft | 481 kts | 152° |
| 2026-04-29 06:44 | 37.20603 | -8.17421 | 34056 ft | 481 kts | 152° |
| 2026-04-29 06:45 | 37.17603 | -8.15375 | 34295 ft | 480 kts | 152° |
| 2026-04-29 06:45 | 37.14666 | -8.13373 | 34540 ft | 480 kts | 152° |
| 2026-04-29 06:45 | 37.11729 | -8.11373 | 34775 ft | 479 kts | 152° |
| 2026-04-29 06:45 | 37.08797 | -8.09378 | 34978 ft | 479 kts | 152° |
| 2026-04-29 06:46 | 37.05905 | -8.07412 | 35002 ft | 478 kts | 152° |
| 2026-04-29 06:46 | 37.00033 | -8.03426 | 35000 ft | 477 kts | 152° |
| 2026-04-29 06:47 | 36.94214 | -7.99484 | 34999 ft | 477 kts | 152° |
| 2026-04-29 06:47 | 36.88368 | -7.95529 | 34997 ft | 477 kts | 152° |
| 2026-04-29 06:48 | 36.82527 | -7.91584 | 34996 ft | 477 kts | 152° |
| 2026-04-29 06:48 | 36.76677 | -7.87640 | 35003 ft | 477 kts | 152° |
| 2026-04-29 06:49 | 36.70824 | -7.83702 | 34997 ft | 478 kts | 152° |
| 2026-04-29 06:49 | 36.64974 | -7.79772 | 35002 ft | 477 kts | 152° |
| 2026-04-29 06:50 | 36.59127 | -7.75852 | 35001 ft | 478 kts | 152° |
| 2026-04-29 06:50 | 36.53312 | -7.71959 | 35001 ft | 478 kts | 152° |
| 2026-04-29 06:51 | 36.47462 | -7.68048 | 34994 ft | 478 kts | 152° |
| 2026-04-29 06:51 | 36.41604 | -7.64140 | 35002 ft | 477 kts | 152° |
| 2026-04-29 06:52 | 36.35752 | -7.60243 | 35001 ft | 477 kts | 152° |
| 2026-04-29 06:52 | 36.30873 | -7.56999 | 35001 ft | 477 kts | 152° |
| 2026-04-29 06:53 | 36.24977 | -7.53086 | 34998 ft | 477 kts | 152° |
| 2026-04-29 06:53 | 36.19156 | -7.49228 | 35001 ft | 477 kts | 152° |
| 2026-04-29 06:54 | 36.13285 | -7.45344 | 34924 ft | 478 kts | 152° |
| 2026-04-29 06:54 | 36.10355 | -7.43407 | 34685 ft | 477 kts | 152° |
| 2026-04-29 06:54 | 36.07470 | -7.41423 | 34425 ft | 477 kts | 147° |
| 2026-04-29 06:54 | 36.04847 | -7.38863 | 34183 ft | 479 kts | 136° |
| 2026-04-29 06:55 | 36.02681 | -7.35719 | 33932 ft | 480 kts | 124° |
| 2026-04-29 06:55 | 36.01060 | -7.32123 | 33693 ft | 481 kts | 113° |
| 2026-04-29 06:55 | 36.00023 | -7.28184 | 33442 ft | 482 kts | 103° |
| 2026-04-29 06:55 | 35.99364 | -7.24169 | 33197 ft | 482 kts | 101° |
| 2026-04-29 06:56 | 35.98738 | -7.20095 | 32946 ft | 483 kts | 101° |
| 2026-04-29 06:56 | 35.98050 | -7.16025 | 32687 ft | 483 kts | 102° |
| 2026-04-29 06:56 | 35.97676 | -7.11938 | 32453 ft | 484 kts | 93° |
| 2026-04-29 06:56 | 35.97488 | -7.07741 | 32044 ft | 484 kts | 93° |
| 2026-04-29 06:57 | 35.97305 | -7.03592 | 31182 ft | 486 kts | 93° |
| 2026-04-29 06:57 | 35.97114 | -6.99408 | 30097 ft | 488 kts | 93° |
| 2026-04-29 06:57 | 35.96919 | -6.95260 | 29392 ft | 481 kts | 93° |
| 2026-04-29 06:57 | 35.96723 | -6.91178 | 28900 ft | 470 kts | 94° |
| 2026-04-29 06:58 | 35.96529 | -6.87181 | 28137 ft | 465 kts | 94° |
| 2026-04-29 06:58 | 35.96333 | -6.83201 | 27354 ft | 462 kts | 94° |
| 2026-04-29 06:58 | 35.96139 | -6.79288 | 26735 ft | 452 kts | 94° |
| 2026-04-29 06:58 | 35.95947 | -6.75448 | 26165 ft | 445 kts | 94° |
| 2026-04-29 06:59 | 35.95756 | -6.71656 | 25591 ft | 440 kts | 94° |
| 2026-04-29 06:59 | 35.95566 | -6.67902 | 25156 ft | 436 kts | 94° |
| 2026-04-29 06:59 | 35.95375 | -6.64161 | 24996 ft | 435 kts | 94° |
| 2026-04-29 06:59 | 35.95185 | -6.60452 | 24609 ft | 433 kts | 94° |
| 2026-04-29 07:00 | 35.94994 | -6.56751 | 24045 ft | 431 kts | 94° |
| 2026-04-29 07:00 | 35.94807 | -6.53136 | 23444 ft | 426 kts | 94° |
| 2026-04-29 07:00 | 35.94614 | -6.49439 | 22717 ft | 422 kts | 94° |
| 2026-04-29 07:00 | 35.94428 | -6.45899 | 22023 ft | 418 kts | 94° |
| 2026-04-29 07:01 | 35.94241 | -6.42340 | 21305 ft | 414 kts | 94° |
| 2026-04-29 07:01 | 35.94055 | -6.38838 | 20762 ft | 405 kts | 94° |
| 2026-04-29 07:01 | 35.94123 | -6.35394 | 20246 ft | 402 kts | 85° |
| 2026-04-29 07:01 | 35.94344 | -6.31918 | 19793 ft | 405 kts | 85° |
| 2026-04-29 07:02 | 35.94562 | -6.28481 | 19320 ft | 401 kts | 85° |
| 2026-04-29 07:02 | 35.94775 | -6.25059 | 18696 ft | 396 kts | 86° |
| 2026-04-29 07:02 | 35.94982 | -6.21683 | 18200 ft | 390 kts | 86° |
| 2026-04-29 07:02 | 35.95185 | -6.18329 | 18038 ft | 394 kts | 86° |
| 2026-04-29 07:03 | 35.95389 | -6.14949 | 17996 ft | 394 kts | 86° |
| 2026-04-29 07:03 | 35.95591 | -6.11576 | 17995 ft | 394 kts | 86° |
| 2026-04-29 07:03 | 35.95791 | -6.08209 | 17995 ft | 394 kts | 86° |
| 2026-04-29 07:03 | 35.95991 | -6.04833 | 18005 ft | 394 kts | 86° |
| 2026-04-29 07:04 | 35.96190 | -6.01465 | 17878 ft | 391 kts | 86° |
| 2026-04-29 07:04 | 35.96386 | -5.98124 | 17398 ft | 389 kts | 86° |
| 2026-04-29 07:04 | 35.96571 | -5.94951 | 16830 ft | 386 kts | 86° |
| 2026-04-29 07:04 | 35.96762 | -5.91661 | 16077 ft | 382 kts | 86° |
| 2026-04-29 07:05 | 35.96950 | -5.88411 | 15320 ft | 378 kts | 86° |
| 2026-04-29 07:05 | 35.97135 | -5.85194 | 14568 ft | 374 kts | 86° |
| 2026-04-29 07:05 | 35.97317 | -5.82009 | 13802 ft | 369 kts | 86° |
| 2026-04-29 07:05 | 35.97471 | -5.78863 | 13057 ft | 365 kts | 87° |
| 2026-04-29 07:06 | 35.97622 | -5.75757 | 12303 ft | 361 kts | 87° |
| 2026-04-29 07:06 | 35.97770 | -5.72717 | 11561 ft | 357 kts | 87° |
| 2026-04-29 07:06 | 35.97918 | -5.69673 | 10835 ft | 353 kts | 87° |
| 2026-04-29 07:06 | 35.98064 | -5.66664 | 10239 ft | 351 kts | 87° |
| 2026-04-29 07:07 | 35.98209 | -5.63650 | 9634 ft | 349 kts | 87° |
| 2026-04-29 07:07 | 35.98353 | -5.60687 | 9038 ft | 344 kts | 87° |
| 2026-04-29 07:07 | 35.98493 | -5.57781 | 8601 ft | 328 kts | 87° |
| 2026-04-29 07:07 | 35.98624 | -5.55085 | 8311 ft | 302 kts | 87° |
| 2026-04-29 07:08 | 35.98746 | -5.52565 | 7822 ft | 286 kts | 87° |
| 2026-04-29 07:08 | 35.98864 | -5.50152 | 7330 ft | 282 kts | 87° |
| 2026-04-29 07:08 | 35.98980 | -5.47769 | 6843 ft | 283 kts | 87° |
| 2026-04-29 07:08 | 35.99099 | -5.45334 | 6335 ft | 278 kts | 87° |
| 2026-04-29 07:09 | 35.99215 | -5.42957 | 5833 ft | 276 kts | 87° |
| 2026-04-29 07:09 | 35.99330 | -5.40595 | 5333 ft | 274 kts | 87° |
| 2026-04-29 07:09 | 35.99441 | -5.38303 | 4929 ft | 271 kts | 87° |
| 2026-04-29 07:09 | 35.99554 | -5.35965 | 4554 ft | 273 kts | 87° |
| 2026-04-29 07:10 | 35.99666 | -5.33648 | 4177 ft | 268 kts | 87° |
| 2026-04-29 07:10 | 35.99778 | -5.31339 | 3808 ft | 269 kts | 87° |
| 2026-04-29 07:10 | 35.99889 | -5.29049 | 3427 ft | 266 kts | 87° |
| 2026-04-29 07:10 | 35.99999 | -5.26762 | 3048 ft | 265 kts | 87° |
| 2026-04-29 07:11 | 36.00108 | -5.24510 | 2560 ft | 259 kts | 87° |
| 2026-04-29 07:11 | 36.00324 | -5.22786 | 2143 ft | 249 kts | 72° |
| 2026-04-29 07:11 | 36.01209 | -5.21038 | 1766 ft | 236 kts | 43° |
| 2026-04-29 07:11 | 36.02576 | -5.20115 | 1612 ft | 218 kts | 12° |
| 2026-04-29 07:12 | 36.04098 | -5.19894 | 1582 ft | 221 kts | 5° |
| 2026-04-29 07:12 | 36.05623 | -5.19763 | 1591 ft | 219 kts | 359° |
| 2026-04-29 07:12 | 36.07142 | -5.19854 | 1589 ft | 219 kts | 355° |
| 2026-04-29 07:12 | 36.08667 | -5.19964 | 1589 ft | 219 kts | 356° |
| 2026-04-29 07:13 | 36.10135 | -5.20070 | 1585 ft | 205 kts | 356° |
| 2026-04-29 07:13 | 36.11510 | -5.20168 | 1585 ft | 190 kts | 356° |
| 2026-04-29 07:13 | 36.12801 | -5.20277 | 1553 ft | 185 kts | 352° |
| 2026-04-29 07:13 | 36.13943 | -5.20925 | 1306 ft | 181 kts | 317° |
| 2026-04-29 07:14 | 36.14664 | -5.22195 | 1141 ft | 184 kts | 299° |
| 2026-04-29 07:14 | 36.15285 | -5.23499 | 1081 ft | 167 kts | 297° |
| 2026-04-29 07:14 | 36.15567 | -5.24857 | 1145 ft | 167 kts | 281° |
| 2026-04-29 07:14 | 36.15851 | -5.26213 | 1092 ft | 155 kts | 283° |
| 2026-04-29 07:15 | 36.15986 | -5.27488 | 1151 ft | 143 kts | 270° |
| 2026-04-29 07:15 | 36.15881 | -5.28707 | 1147 ft | 144 kts | 257° |
| 2026-04-29 07:15 | 36.15644 | -5.29880 | 1015 ft | 141 kts | 255° |
| 2026-04-29 07:15 | 36.15437 | -5.31075 | 805 ft | 139 kts | 258° |
| 2026-04-29 07:16 | 36.15278 | -5.32278 | 487 ft | 145 kts | 261° |
| 2026-04-29 07:16 | 36.15176 | -5.33489 | 201 ft | 139 kts | 264° |
| 2026-04-29 07:16 | 36.15129 | -5.34681 | 26 ft | 126 kts | 268° |
| 2026-04-29 07:16 | 36.15108 | -5.35391 | 27 ft | 53 kts | 267° |
| 2026-04-29 07:17 | 36.15099 | -5.35665 | 30 ft | 17 kts | 268° |
| 2026-04-29 07:17 | 36.15093 | -5.35815 | 26 ft | 18 kts | 261° |
| 2026-04-29 07:17 | 36.15069 | -5.35939 | 25 ft | 8 kts | 288° |
| 2026-04-29 07:17 | 36.15106 | -5.35936 | 30 ft | 4 kts | 51° |
| 2026-04-29 07:18 | 36.15103 | -5.35885 | 27 ft | 7 kts | 101° |
| 2026-04-29 07:18 | 36.15097 | -5.35818 | 26 ft | 9 kts | 91° |
| 2026-04-29 07:18 | 36.15097 | -5.35710 | 27 ft | 15 kts | 88° |
| 2026-04-29 07:18 | 36.15102 | -5.35565 | 30 ft | 18 kts | 88° |
| 2026-04-29 07:19 | 36.15107 | -5.35400 | 27 ft | 20 kts | 88° |
| 2026-04-29 07:19 | 36.15112 | -5.35216 | 26 ft | 23 kts | 88° |
| 2026-04-29 07:19 | 36.15122 | -5.35025 | 28 ft | 22 kts | 86° |
| 2026-04-29 07:19 | 36.15126 | -5.34935 | 27 ft | 2 kts | 87° |
| 2026-04-29 07:20 | 36.15128 | -5.34898 | 27 ft | 7 kts | 87° |
| 2026-04-29 07:20 | 36.15130 | -5.34809 | 27 ft | 12 kts | 90° |
| 2026-04-29 07:20 | 36.15148 | -5.34698 | 32 ft | 14 kts | 52° |
| 2026-04-29 07:20 | 36.15200 | -5.34673 | 27 ft | 2 kts | 16° |
| 2026-04-29 07:21 | 36.15218 | -5.34650 | 31 ft | 7 kts | 56° |
| 2026-04-29 07:21 | 36.15249 | -5.34625 | 27 ft | 0 kts | 7° |
| 2026-04-29 07:21 | 36.15263 | -5.34621 | 24 ft | 4 kts | 11° |
| 2026-04-29 07:21 | 36.15292 | -5.34622 | 26 ft | 2 kts | 359° |
| 2026-04-29 07:22 | 36.15301 | -5.34622 | 24 ft | 0 kts | 359° |